AUR38J EGJB-EGJJ

Flight info

Callsign AUR38J
Flight time 0h 9m
Altitude 2000
Route SHARK
Aircraft AT76/M-SDFGIRY/S

Departure

Time 2026-05-04 18:43
Airport Guernsey Airport (EGJB)

Arrival

Time 2026-05-04 18:52
Airport Jersey Airport (EGJJ)
Time Latitude Longitude Altitude Speed Heading
2026-05-04 18:22 49.43255 -2.59684 322 ft 0 kts 177°
2026-05-04 18:34 49.43259 -2.59684 324 ft 3 kts 177°
2026-05-04 18:34 49.43286 -2.59686 325 ft 4 kts 177°
2026-05-04 18:34 49.43313 -2.59687 325 ft 4 kts 177°
2026-05-04 18:35 49.43340 -2.59689 325 ft 4 kts 177°
2026-05-04 18:35 49.43358 -2.59690 325 ft 0 kts 177°
2026-05-04 18:37 49.43355 -2.59696 325 ft 1 kts 235°
2026-05-04 18:38 49.43353 -2.59748 322 ft 9 kts 255°
2026-05-04 18:38 49.43344 -2.59874 319 ft 15 kts 267°
2026-05-04 18:38 49.43340 -2.60034 308 ft 17 kts 268°
2026-05-04 18:38 49.43334 -2.60248 294 ft 22 kts 267°
2026-05-04 18:39 49.43328 -2.60481 291 ft 21 kts 267°
2026-05-04 18:39 49.43335 -2.60681 292 ft 17 kts 281°
2026-05-04 18:39 49.43357 -2.60862 302 ft 19 kts 280°
2026-05-04 18:39 49.43363 -2.61036 307 ft 15 kts 267°
2026-05-04 18:40 49.43359 -2.61185 309 ft 11 kts 267°
2026-05-04 18:40 49.43360 -2.61234 309 ft 0 kts 278°
2026-05-04 18:41 49.43362 -2.61244 310 ft 3 kts 287°
2026-05-04 18:41 49.43377 -2.61282 311 ft 4 kts 310°
2026-05-04 18:42 49.43398 -2.61319 312 ft 5 kts 312°
2026-05-04 18:42 49.43437 -2.61357 312 ft 8 kts 351°
2026-05-04 18:42 49.43467 -2.61310 312 ft 6 kts 88°
2026-05-04 18:42 49.43467 -2.61301 312 ft 2 kts 88°
2026-05-04 18:43 49.43479 -2.60860 307 ft 78 kts 86°
2026-05-04 18:43 49.43508 -2.59737 405 ft 120 kts 85°
2026-05-04 18:43 49.43510 -2.58471 1059 ft 119 kts 86°
2026-05-04 18:43 49.43526 -2.57195 1585 ft 123 kts 86°
2026-05-04 18:44 49.43547 -2.55757 1775 ft 146 kts 86°
2026-05-04 18:44 49.43569 -2.54667 1854 ft 161 kts 89°
2026-05-04 18:44 49.42762 -2.52583 1938 ft 198 kts 150°
2026-05-04 18:44 49.41396 -2.51874 1973 ft 217 kts 162°
2026-05-04 18:45 49.39917 -2.51233 1985 ft 231 kts 163°
2026-05-04 18:45 49.38327 -2.50607 1991 ft 240 kts 164°
2026-05-04 18:45 49.36685 -2.49968 1996 ft 246 kts 164°
2026-05-04 18:45 49.35017 -2.49304 2003 ft 250 kts 164°
2026-05-04 18:46 49.33322 -2.48628 2000 ft 252 kts 164°
2026-05-04 18:46 49.31669 -2.47973 1992 ft 238 kts 164°
2026-05-04 18:46 49.30099 -2.47347 1990 ft 229 kts 164°
2026-05-04 18:46 49.28589 -2.46735 1987 ft 221 kts 164°
2026-05-04 18:47 49.27114 -2.46144 1987 ft 220 kts 164°
2026-05-04 18:47 49.25583 -2.45525 1998 ft 234 kts 163°
2026-05-04 18:47 49.23972 -2.44883 1993 ft 243 kts 163°
2026-05-04 18:47 49.22320 -2.44224 1995 ft 245 kts 163°
2026-05-04 18:48 49.20802 -2.43448 1983 ft 217 kts 146°
2026-05-04 18:48 49.19855 -2.41857 1988 ft 193 kts 120°
2026-05-04 18:48 49.19520 -2.40009 1994 ft 173 kts 89°
2026-05-04 18:48 49.19505 -2.38239 1992 ft 161 kts 89°
2026-05-04 18:49 49.19495 -2.36582 1998 ft 150 kts 88°
2026-05-04 18:49 49.19506 -2.35080 1992 ft 132 kts 86°
2026-05-04 18:49 49.19582 -2.33757 1987 ft 120 kts 81°
2026-05-04 18:49 49.19708 -2.32497 1870 ft 126 kts 79°
2026-05-04 18:50 49.19840 -2.31114 1695 ft 132 kts 80°
2026-05-04 18:50 49.19950 -2.29720 1519 ft 135 kts 81°
2026-05-04 18:50 49.20063 -2.28290 1321 ft 132 kts 81°
2026-05-04 18:50 49.20165 -2.26978 1157 ft 119 kts 81°
2026-05-04 18:51 49.20274 -2.25747 984 ft 113 kts 79°
2026-05-04 18:51 49.20379 -2.24568 828 ft 110 kts 78°
2026-05-04 18:51 49.20482 -2.23387 680 ft 115 kts 78°
2026-05-04 18:51 49.20577 -2.22173 530 ft 114 kts 80°
2026-05-04 18:52 49.20675 -2.20979 375 ft 112 kts 78°
2026-05-04 18:52 49.20771 -2.19868 281 ft 93 kts 83°
2026-05-04 18:52 49.20816 -2.19272 282 ft 29 kts 89°
2026-05-04 18:52 49.20797 -2.19054 281 ft 18 kts 105°
2026-05-04 18:53 49.20757 -2.18895 281 ft 13 kts 112°
2026-05-04 18:53 49.20705 -2.18872 281 ft 9 kts 243°
2026-05-04 18:53 49.20694 -2.18982 281 ft 12 kts 263°
2026-05-04 18:53 49.20684 -2.19112 281 ft 13 kts 263°
2026-05-04 18:54 49.20688 -2.19251 281 ft 13 kts 284°
2026-05-04 18:54 49.20710 -2.19384 281 ft 13 kts 278°
2026-05-04 18:54 49.20700 -2.19523 281 ft 14 kts 260°
2026-05-04 18:54 49.20658 -2.19656 280 ft 15 kts 213°
2026-05-04 18:55 49.20613 -2.19753 280 ft 12 kts 264°
2026-05-04 18:55 49.20566 -2.19864 280 ft 5 kts 173°
2026-05-04 18:55 49.20543 -2.19860 280 ft 2 kts 174°
2026-05-04 18:56 49.20541 -2.19860 280 ft 0 kts 174°